Time;durP1;ratioP1;P1;durP2;ratioP2;P2;SDS_P1;SDS_P2;PMS_P1;PMS_P2;Temp;Humidity;BMP_temperature;BMP_pressure;BME280_temperature;BME280_humidity;BME280_pressure;Samples;Min_cycle;Max_cycle;Signal;HPM_P1;HPM_P2
2022/03/05 00:02:08;;;;;;;;;;;;;;;2.11;57.21;94938.75;5116569;28;988;-48
2022/03/05 00:04:34;;;;;;;;;;;;;;;2.31;57.01;94926.69;5116459;28;1048;-48
2022/03/05 00:07:00;;;;;;;;;;;;;;;2.31;56.82;94934.59;5116645;28;979;-48
2022/03/05 00:09:26;;;;;;;;;;;;;;;2.37;56.71;94927.19;5116199;28;1226;-48
2022/03/05 00:11:52;;;;;;;;;;;;;;;2.22;58.16;94931.84;5116101;28;1032;-48
2022/03/05 00:14:18;;;;;;;;;;;;;;;1.88;57.08;94924.66;5116357;28;1043;-48
2022/03/05 00:16:44;;;;;;;;;;;;;;;1.57;57.80;94923.44;5116189;28;1988;-48
2022/03/05 00:19:10;;;;;;;;;;;;;;;1.36;58.22;94923.19;5116349;28;1020;-48
2022/03/05 00:21:36;;;;;;;;;;;;;;;1.27;57.28;94926.50;5116281;28;1004;-48
2022/03/05 00:24:02;;;;;;;;;;;;;;;1.35;57.48;94926.81;5116291;28;1037;-48
2022/03/05 00:26:28;;;;;;;;;;;;;;;1.53;57.29;94921.97;5116358;27;954;-48
2022/03/05 00:28:54;;;;;;;;;;;;;;;1.81;56.95;94928.69;5115842;28;1130;-48
2022/03/05 00:31:21;;;;;;;;;;;;;;;1.69;56.68;94925.19;5116142;28;1027;-48
2022/03/05 00:33:47;;;;;;;;;;;;;;;1.49;57.72;94920.53;5115843;28;1059;-48
2022/03/05 00:36:13;;;;;;;;;;;;;;;1.58;57.21;94921.66;5116210;28;1059;-48
2022/03/05 00:38:39;;;;;;;;;;;;;;;1.69;57.08;94919.03;5115426;28;1979;-48
2022/03/05 00:41:06;;;;;;;;;;;;;;;1.74;55.68;94924.81;5116083;28;1051;-48
2022/03/05 00:43:31;;;;;;;;;;;;;;;1.60;56.94;94928.47;5115437;28;1246;-48
2022/03/05 00:45:57;;;;;;;;;;;;;;;1.19;58.60;94926.22;5115757;28;1067;-48
2022/03/05 00:48:23;;;;;;;;;;;;;;;0.98;57.44;94924.16;5115605;28;1023;-48
2022/03/05 00:50:49;;;;;;;;;;;;;;;1.15;58.06;94918.50;5118511;27;1294;-48
2022/03/05 00:53:17;;;;;;;;;;;;;;;1.35;56.36;94922.38;5135825;27;1116;-48
2022/03/05 00:55:43;;;;;;;;;;;;;;;1.32;57.37;94919.94;5136061;27;1028;-48
2022/03/05 00:58:09;;;;;;;;;;;;;;;1.46;57.89;94918.09;5136019;27;1906;-48
2022/03/05 01:00:35;;;;;;;;;;;;;;;1.48;56.81;94918.81;5136157;27;957;-48
2022/03/05 01:03:02;;;;;;;;;;;;;;;1.44;56.80;94926.13;5135838;27;1016;-48
2022/03/05 01:05:28;;;;;;;;;;;;;;;1.49;57.33;94920.53;5136213;27;1010;-48
2022/03/05 01:07:54;;;;;;;;;;;;;;;1.56;56.45;94916.50;5135694;27;1048;-48
2022/03/05 01:10:20;;;;;;;;;;;;;;;1.56;56.63;94911.22;5135591;27;1361;-48
2022/03/05 01:12:46;;;;;;;;;;;;;;;1.56;55.48;94913.84;5135751;27;965;-48
2022/03/05 01:15:12;;;;;;;;;;;;;;;1.55;56.27;94907.72;5135708;27;952;-48
2022/03/05 01:17:38;;;;;;;;;;;;;;;1.60;57.49;94912.69;5135919;27;1913;-48
2022/03/05 01:20:04;;;;;;;;;;;;;;;1.65;56.98;94912.31;5135653;27;1043;-48
2022/03/05 01:22:30;;;;;;;;;;;;;;;1.58;58.81;94913.75;5135448;27;1014;-48
2022/03/05 01:24:56;;;;;;;;;;;;;;;1.50;58.66;94914.28;5135263;27;1090;-48
2022/03/05 01:27:22;;;;;;;;;;;;;;;1.69;58.09;94916.41;5135744;27;1301;-48
2022/03/05 01:29:48;;;;;;;;;;;;;;;1.75;57.88;94914.19;5135449;27;976;-48
2022/03/05 01:32:14;;;;;;;;;;;;;;;1.67;58.55;94919.19;5135660;27;1027;-48
2022/03/05 01:34:40;;;;;;;;;;;;;;;1.71;57.79;94910.09;5135253;27;1043;-48
2022/03/05 01:37:06;;;;;;;;;;;;;;;1.66;59.08;94906.94;5135238;27;1909;-48
2022/03/05 01:39:33;;;;;;;;;;;;;;;1.51;60.03;94908.06;5135067;27;1019;-48
2022/03/05 01:41:59;;;;;;;;;;;;;;;1.70;57.17;94905.75;5135103;27;959;-48
2022/03/05 01:44:25;;;;;;;;;;;;;;;2.01;56.11;94907.91;5135190;27;967;-48
2022/03/05 01:46:51;;;;;;;;;;;;;;;2.34;54.31;94904.53;5135010;27;1023;-48
2022/03/05 01:49:17;;;;;;;;;;;;;;;2.24;55.45;94909.66;5135123;27;1063;-48
2022/03/05 01:51:43;;;;;;;;;;;;;;;2.31;53.97;94908.22;5123048;27;1156;-48
2022/03/05 01:54:10;;;;;;;;;;;;;;;2.59;52.79;94914.03;5114520;28;964;-48
2022/03/05 01:56:37;;;;;;;;;;;;;;;2.73;52.08;94910.31;5114498;28;1993;-48
2022/03/05 01:59:03;;;;;;;;;;;;;;;2.84;51.39;94901.56;5114212;28;945;-48
2022/03/05 02:01:30;;;;;;;;;;;;;;;2.82;51.75;94893.75;5114352;28;1015;-48
2022/03/05 02:03:56;;;;;;;;;;;;;;;2.80;51.62;94892.22;5114384;28;954;-48
2022/03/05 02:06:23;;;;;;;;;;;;;;;2.86;50.94;94897.00;5114046;28;1024;-48
2022/03/05 02:08:49;;;;;;;;;;;;;;;2.95;50.27;94895.47;5113861;28;1850;-48
2022/03/05 02:11:16;;;;;;;;;;;;;;;2.86;50.21;94894.38;5114187;28;1027;-48
2022/03/05 02:13:42;;;;;;;;;;;;;;;2.87;49.79;94893.41;5113887;28;1867;-48
2022/03/05 02:16:08;;;;;;;;;;;;;;;2.79;51.59;94899.31;5114042;28;983;-48
2022/03/05 02:18:34;;;;;;;;;;;;;;;2.68;51.74;94896.66;5114253;28;1898;-48
2022/03/05 02:21:00;;;;;;;;;;;;;;;2.72;51.50;94888.38;5113915;28;1015;-48
2022/03/05 02:23:27;;;;;;;;;;;;;;;2.79;51.13;94894.03;5114253;28;959;-48
2022/03/05 02:25:57;;;;;;;;;;;;;;;2.73;52.32;94899.75;5113931;28;965;-48
2022/03/05 02:28:24;;;;;;;;;;;;;;;2.61;51.91;94900.72;5114058;28;1014;-48
2022/03/05 02:30:50;;;;;;;;;;;;;;;2.47;51.58;94905.28;5113729;28;1031;-48
2022/03/05 02:33:16;;;;;;;;;;;;;;;2.54;51.92;94911.78;5114132;28;1040;-48
2022/03/05 02:35:45;;;;;;;;;;;;;;;2.71;51.03;94907.81;5113447;28;1266;-48
2022/03/05 02:38:15;;;;;;;;;;;;;;;2.61;52.64;94912.13;5112773;28;1902;-48
2022/03/05 02:40:42;;;;;;;;;;;;;;;2.71;51.02;94905.19;5113901;28;1035;-48
2022/03/05 02:43:09;;;;;;;;;;;;;;;2.74;51.61;94902.28;5113606;28;1028;-48
2022/03/05 02:45:35;;;;;;;;;;;;;;;2.65;51.15;94907.44;5113825;28;1039;-48
2022/03/05 02:48:02;;;;;;;;;;;;;;;2.57;51.93;94910.69;5113856;28;1059;-48
2022/03/05 02:50:29;;;;;;;;;;;;;;;2.49;53.42;94903.34;5114580;28;1164;-47
2022/03/05 02:52:55;;;;;;;;;;;;;;;2.52;52.64;94908.41;5134470;27;1055;-48
2022/03/05 02:55:21;;;;;;;;;;;;;;;2.48;52.74;94906.09;5132777;28;1856;-48
2022/03/05 02:57:47;;;;;;;;;;;;;;;2.57;52.00;94909.84;5134276;28;1990;-48
2022/03/05 03:00:15;;;;;;;;;;;;;;;2.67;51.71;94905.53;5133950;27;929;-48
2022/03/05 03:02:41;;;;;;;;;;;;;;;2.74;50.47;94912.84;5134645;27;1032;-48
2022/03/05 03:05:07;;;;;;;;;;;;;;;2.73;50.80;94912.97;5133957;27;1011;-48
2022/03/05 03:07:33;;;;;;;;;;;;;;;2.60;52.32;94912.22;5134310;28;1036;-48
2022/03/05 03:09:59;;;;;;;;;;;;;;;2.41;53.72;94904.88;5133898;28;1080;-48
2022/03/05 03:12:26;;;;;;;;;;;;;;;2.04;55.99;94905.88;5134039;27;1019;-48
2022/03/05 03:14:52;;;;;;;;;;;;;;;1.93;55.33;94908.50;5137290;27;957;-48
2022/03/05 03:17:18;;;;;;;;;;;;;;;1.79;56.14;94909.53;5138136;27;1901;-48
2022/03/05 03:19:44;;;;;;;;;;;;;;;1.62;56.82;94912.56;5137972;27;971;-48
2022/03/05 03:22:10;;;;;;;;;;;;;;;1.34;57.08;94911.94;5138197;27;1039;-48
2022/03/05 03:24:36;;;;;;;;;;;;;;;1.30;56.96;94907.84;5138157;27;957;-48
2022/03/05 03:27:02;;;;;;;;;;;;;;;1.41;55.45;94900.00;5137542;27;1086;-48
2022/03/05 03:29:28;;;;;;;;;;;;;;;1.52;55.34;94901.88;5137827;27;1087;-48
2022/03/05 03:31:54;;;;;;;;;;;;;;;1.51;55.92;94908.06;5137786;27;967;-48
2022/03/05 03:34:20;;;;;;;;;;;;;;;1.48;56.63;94903.00;5137629;27;1044;-48
2022/03/05 03:36:46;;;;;;;;;;;;;;;1.52;56.01;94902.69;5137566;27;1901;-48
2022/03/05 03:39:12;;;;;;;;;;;;;;;1.51;56.16;94898.38;5137919;27;1047;-48
2022/03/05 03:41:38;;;;;;;;;;;;;;;1.64;55.28;94895.69;5137388;27;1043;-48
2022/03/05 03:44:04;;;;;;;;;;;;;;;1.81;54.68;94901.50;5137694;27;1062;-48
2022/03/05 03:46:30;;;;;;;;;;;;;;;1.90;55.09;94898.19;5137618;27;967;-48
2022/03/05 03:48:56;;;;;;;;;;;;;;;1.71;55.50;94902.19;5137786;27;1079;-48
2022/03/05 03:51:22;;;;;;;;;;;;;;;1.30;57.00;94900.78;5128619;27;1215;-48
2022/03/05 03:53:48;;;;;;;;;;;;;;;1.19;57.69;94898.06;5116670;28;1040;-48
2022/03/05 03:56:14;;;;;;;;;;;;;;;1.21;57.66;94903.22;5116687;28;1023;-48
2022/03/05 03:58:40;;;;;;;;;;;;;;;1.10;59.29;94902.22;5116621;28;2030;-47
2022/03/05 04:01:06;;;;;;;;;;;;;;;1.08;58.52;94898.84;5116400;28;1842;-48
2022/03/05 04:03:32;;;;;;;;;;;;;;;1.05;59.51;94898.22;5116513;28;1067;-48
2022/03/05 04:05:58;;;;;;;;;;;;;;;1.22;58.24;94903.13;5116547;28;1032;-48
2022/03/05 04:08:42;;;;;;;;;;;;;;;1.40;58.14;94906.22;5116487;28;1048;-48
2022/03/05 04:11:09;;;;;;;;;;;;;;;1.68;56.12;94912.94;5116825;28;952;-48
2022/03/05 04:13:35;;;;;;;;;;;;;;;1.95;54.43;94927.66;5116507;28;980;-48
2022/03/05 04:16:02;;;;;;;;;;;;;;;2.13;53.22;94930.75;5116028;28;1099;-48
2022/03/05 04:18:28;;;;;;;;;;;;;;;2.12;53.14;94931.69;5116217;28;1890;-48
2022/03/05 04:20:54;;;;;;;;;;;;;;;2.14;53.11;94925.34;5116138;28;1003;-48
2022/03/05 04:23:20;;;;;;;;;;;;;;;2.23;53.21;94925.59;5116151;28;1969;-48
2022/03/05 04:25:46;;;;;;;;;;;;;;;2.03;55.57;94930.59;5116002;28;1035;-48
2022/03/05 04:28:12;;;;;;;;;;;;;;;1.65;55.92;94920.22;5116198;28;952;-48
2022/03/05 04:30:38;;;;;;;;;;;;;;;1.49;55.70;94923.16;5116036;28;1044;-48
2022/03/05 04:33:04;;;;;;;;;;;;;;;1.33;57.76;94929.53;5115753;28;1091;-48
2022/03/05 04:35:30;;;;;;;;;;;;;;;1.20;57.74;94928.72;5115820;28;1040;-48
2022/03/05 04:37:55;;;;;;;;;;;;;;;1.14;58.08;94934.44;5115709;28;1917;-48
2022/03/05 04:40:22;;;;;;;;;;;;;;;1.21;59.34;94940.09;5116169;28;968;-48
2022/03/05 04:42:48;;;;;;;;;;;;;;;1.17;59.05;94934.22;5115485;28;964;-48
2022/03/05 04:45:14;;;;;;;;;;;;;;;1.08;59.83;94935.72;5115759;28;1026;-48
2022/03/05 04:47:40;;;;;;;;;;;;;;;1.16;59.57;94936.00;5115482;28;1032;-48
2022/03/05 04:50:07;;;;;;;;;;;;;;;1.32;58.83;94932.28;5115535;28;1115;-48
2022/03/05 04:52:34;;;;;;;;;;;;;;;1.21;60.04;94933.03;5134500;27;1628;-48
2022/03/05 04:55:00;;;;;;;;;;;;;;;1.20;60.03;94936.63;5136117;27;963;-48
2022/03/05 04:57:26;;;;;;;;;;;;;;;1.08;60.49;94940.13;5136087;27;1988;-48
2022/03/05 04:59:52;;;;;;;;;;;;;;;1.21;60.05;94946.19;5136205;27;972;-48
2022/03/05 05:02:18;;;;;;;;;;;;;;;1.19;60.19;94947.28;5135783;27;1075;-48
2022/03/05 05:04:44;;;;;;;;;;;;;;;1.15;60.85;94946.66;5136047;27;1019;-48
2022/03/05 05:07:10;;;;;;;;;;;;;;;0.93;61.50;94948.19;5136042;27;1074;-48
2022/03/05 05:09:36;;;;;;;;;;;;;;;1.02;60.43;94948.47;5135678;27;1087;-47
2022/03/05 05:12:02;;;;;;;;;;;;;;;1.19;60.04;94952.53;5135286;27;1012;-48
2022/03/05 05:14:28;;;;;;;;;;;;;;;1.45;59.37;94950.69;5135765;27;994;-48
2022/03/05 05:16:54;;;;;;;;;;;;;;;1.52;59.01;94949.28;5135583;27;1917;-48
2022/03/05 05:19:29;;;;;;;;;;;;;;;1.36;60.62;94950.38;5135765;27;976;-48
2022/03/05 05:21:59;;;;;;;;;;;;;;;1.11;60.81;94950.44;5135697;27;1039;-47
2022/03/05 05:24:27;;;;;;;;;;;;;;;1.25;60.75;94958.22;5135788;27;956;-48
2022/03/05 05:26:53;;;;;;;;;;;;;;;1.26;61.11;94964.34;5135324;27;1028;-48
2022/03/05 05:29:19;;;;;;;;;;;;;;;1.24;60.67;94969.69;5135631;27;1030;-47
2022/03/05 05:31:45;;;;;;;;;;;;;;;1.33;60.69;94971.69;5135285;27;1008;-48
2022/03/05 05:34:11;;;;;;;;;;;;;;;1.38;59.62;94971.34;5135042;27;1075;-48
2022/03/05 05:36:38;;;;;;;;;;;;;;;1.36;60.13;94971.44;5134875;27;1996;-48
2022/03/05 05:39:08;;;;;;;;;;;;;;;1.58;58.83;94969.94;5134981;27;1027;-48
2022/03/05 05:41:35;;;;;;;;;;;;;;;1.33;59.23;94982.22;5135266;27;999;-47
2022/03/05 05:44:02;;;;;;;;;;;;;;;1.46;59.64;94976.94;5134688;27;1048;-48
2022/03/05 05:46:28;;;;;;;;;;;;;;;1.51;59.69;94973.94;5135138;27;1008;-48
2022/03/05 05:48:55;;;;;;;;;;;;;;;1.61;59.13;94977.59;5135039;27;1030;-48
2022/03/05 05:51:21;;;;;;;;;;;;;;;1.68;59.02;94984.09;5126726;27;1160;-48
2022/03/05 05:53:47;;;;;;;;;;;;;;;1.77;59.14;94987.06;5114456;28;1046;-47
2022/03/05 05:56:12;;;;;;;;;;;;;;;1.73;58.96;94982.00;5114671;28;992;-48
2022/03/05 05:58:39;;;;;;;;;;;;;;;1.80;59.37;94995.53;5114061;28;1902;-48
2022/03/05 06:01:05;;;;;;;;;;;;;;;1.95;59.27;94991.81;5114230;28;920;-48
2022/03/05 06:03:31;;;;;;;;;;;;;;;2.02;59.72;94994.81;5114198;28;981;-48
2022/03/05 06:05:58;;;;;;;;;;;;;;;1.93;59.57;94993.69;5114128;28;1036;-48
2022/03/05 06:08:24;;;;;;;;;;;;;;;1.89;58.84;94994.88;5114096;28;1040;-48
2022/03/05 06:10:51;;;;;;;;;;;;;;;2.03;59.13;94995.66;5113896;28;1191;-48
2022/03/05 06:13:18;;;;;;;;;;;;;;;2.22;58.95;95003.06;5113708;28;1881;-48
2022/03/05 06:15:44;;;;;;;;;;;;;;;2.44;57.24;95003.13;5114382;28;1058;-48
2022/03/05 06:18:10;;;;;;;;;;;;;;;2.79;55.81;94997.00;5114037;28;1906;-48
2022/03/05 06:20:36;;;;;;;;;;;;;;;2.99;55.70;94997.25;5114262;28;949;-48
2022/03/05 06:23:02;;;;;;;;;;;;;;;3.05;55.98;95000.25;5113787;28;984;-47
2022/03/05 06:25:28;;;;;;;;;;;;;;;3.10;56.34;94994.63;5114277;28;1048;-48
2022/03/05 06:27:54;;;;;;;;;;;;;;;3.39;56.12;94991.50;5113548;28;1062;-48
2022/03/05 06:30:20;;;;;;;;;;;;;;;3.46;53.26;94982.13;5113895;28;1048;-48
2022/03/05 06:32:46;;;;;;;;;;;;;;;3.78;53.07;94992.75;5113880;28;953;-48
2022/03/05 06:35:12;;;;;;;;;;;;;;;4.05;50.50;94989.69;5113697;28;1023;-47
2022/03/05 06:37:38;;;;;;;;;;;;;;;4.16;52.67;94988.81;5114033;28;1986;-48
2022/03/05 06:40:05;;;;;;;;;;;;;;;4.42;51.96;94991.97;5113597;28;992;-48
2022/03/05 06:42:31;;;;;;;;;;;;;;;4.60;50.71;94986.09;5113835;28;1028;-48
2022/03/05 06:44:57;;;;;;;;;;;;;;;4.94;49.38;94991.19;5113822;28;973;-48
2022/03/05 06:47:23;;;;;;;;;;;;;;;5.47;47.19;94998.97;5113970;28;967;-48
2022/03/05 06:49:49;;;;;;;;;;;;;;;5.88;45.77;94994.50;5116984;28;1027;-48
2022/03/05 06:52:15;;;;;;;;;;;;;;;5.72;44.63;94992.34;5134445;27;1169;-47
2022/03/05 06:54:41;;;;;;;;;;;;;;;5.33;45.77;94986.06;5138381;27;1057;-48
2022/03/05 06:57:08;;;;;;;;;;;;;;;5.23;45.98;94991.31;5138488;27;1906;-48
2022/03/05 06:59:34;;;;;;;;;;;;;;;5.24;45.03;94999.16;5138193;27;1874;-48
2022/03/05 07:02:00;;;;;;;;;;;;;;;5.74;44.07;94998.34;5138595;27;1041;-48
2022/03/05 07:04:26;;;;;;;;;;;;;;;6.54;42.39;94998.34;5138590;27;1019;-48
2022/03/05 07:06:52;;;;;;;;;;;;;;;6.87;41.55;94996.22;5138393;27;1042;-47
2022/03/05 07:09:18;;;;;;;;;;;;;;;7.00;40.06;94991.44;5137907;27;1080;-48
2022/03/05 07:11:44;;;;;;;;;;;;;;;7.55;39.52;94996.03;5138074;27;1079;-48
2022/03/05 07:14:10;;;;;;;;;;;;;;;7.63;38.27;94997.00;5138207;27;952;-48
2022/03/05 07:16:35;;;;;;;;;;;;;;;7.17;39.15;94993.38;5138288;27;2004;-48
2022/03/05 07:19:02;;;;;;;;;;;;;;;7.58;38.89;94988.59;5137831;27;1035;-48
2022/03/05 07:21:28;;;;;;;;;;;;;;;7.47;39.14;94991.44;5137976;27;1116;-48
2022/03/05 07:23:54;;;;;;;;;;;;;;;7.00;39.85;94997.63;5137625;27;1040;-48
2022/03/05 07:26:20;;;;;;;;;;;;;;;7.23;39.82;94997.28;5137784;27;1149;-48
2022/03/05 07:28:46;;;;;;;;;;;;;;;8.17;37.81;94996.28;5137619;27;1063;-48
2022/03/05 07:31:12;;;;;;;;;;;;;;;7.75;37.55;94991.47;5137922;27;1032;-48
2022/03/05 07:33:38;;;;;;;;;;;;;;;7.16;38.46;94997.00;5137879;27;1222;-47
2022/03/05 07:36:04;;;;;;;;;;;;;;;7.26;38.14;94993.50;5137425;27;1087;-48
2022/03/05 07:38:31;;;;;;;;;;;;;;;8.11;37.04;94987.06;5137574;27;1913;-48
2022/03/05 07:40:57;;;;;;;;;;;;;;;8.79;36.68;94997.25;5137872;27;1023;-48
2022/03/05 07:43:23;;;;;;;;;;;;;;;9.42;35.71;94984.69;5137315;27;1292;-48
2022/03/05 07:45:49;;;;;;;;;;;;;;;8.22;37.08;95002.00;5137253;27;1028;-47
2022/03/05 07:48:19;;;;;;;;;;;;;;;7.17;38.76;95001.38;5136296;27;1037;-48
2022/03/05 07:50:45;;;;;;;;;;;;;;;6.13;39.68;95000.28;5133852;27;1212;-47
2022/03/05 07:53:11;;;;;;;;;;;;;;;5.85;41.01;95003.56;5116714;28;1087;-48
2022/03/05 07:55:37;;;;;;;;;;;;;;;5.93;41.33;94999.38;5116477;28;1020;-47
2022/03/05 07:58:03;;;;;;;;;;;;;;;6.03;41.93;95010.88;5116725;27;1910;-47
2022/03/05 08:00:30;;;;;;;;;;;;;;;6.13;41.35;95005.59;5115982;28;981;-47
2022/03/05 08:02:56;;;;;;;;;;;;;;;6.15;40.82;94999.19;5116553;28;1023;-47
2022/03/05 08:05:21;;;;;;;;;;;;;;;6.40;41.24;95003.09;5116365;28;1048;-46
2022/03/05 08:07:47;;;;;;;;;;;;;;;6.43;40.79;94997.53;5115450;28;1023;-46
2022/03/05 08:10:14;;;;;;;;;;;;;;;6.36;39.98;95000.88;5116121;28;1114;-47
2022/03/05 08:12:40;;;;;;;;;;;;;;;6.42;41.17;95001.16;5115364;28;1024;-46
2022/03/05 08:15:07;;;;;;;;;;;;;;;6.55;41.33;95000.88;5116388;28;979;-47
2022/03/05 08:17:33;;;;;;;;;;;;;;;6.40;40.93;95007.59;5116328;27;1905;-46
2022/03/05 08:19:59;;;;;;;;;;;;;;;6.39;41.56;95005.91;5115991;28;1083;-47
2022/03/05 08:22:25;;;;;;;;;;;;;;;6.55;41.40;95000.06;5116216;28;1000;-46
2022/03/05 08:24:51;;;;;;;;;;;;;;;6.75;41.14;94998.19;5115840;28;1051;-46
2022/03/05 08:27:17;;;;;;;;;;;;;;;6.65;40.52;95000.88;5116106;28;1020;-47
2022/03/05 08:29:43;;;;;;;;;;;;;;;6.54;40.80;94999.19;5115892;28;1020;-46
2022/03/05 08:32:09;;;;;;;;;;;;;;;6.56;40.32;94999.06;5116283;28;1038;-46
2022/03/05 08:34:35;;;;;;;;;;;;;;;6.77;39.92;94993.59;5116111;28;1150;-46
2022/03/05 08:37:02;;;;;;;;;;;;;;;6.98;40.19;94996.94;5115870;28;1988;-46
2022/03/05 08:39:28;;;;;;;;;;;;;;;6.93;40.40;94991.19;5115871;28;984;-46
2022/03/05 08:41:54;;;;;;;;;;;;;;;6.88;40.11;94997.91;5115669;28;1019;-47
2022/03/05 08:44:20;;;;;;;;;;;;;;;6.90;40.18;95002.09;5115967;28;968;-47
2022/03/05 08:46:46;;;;;;;;;;;;;;;6.97;39.89;94999.72;5115710;28;1020;-47
2022/03/05 08:49:13;;;;;;;;;;;;;;;7.12;40.05;94997.47;5115842;28;960;-46
2022/03/05 08:51:39;;;;;;;;;;;;;;;7.02;39.93;94997.50;5126454;27;1145;-46
2022/03/05 08:54:05;;;;;;;;;;;;;;;6.98;39.72;94996.94;5136315;27;968;-46
2022/03/05 08:56:31;;;;;;;;;;;;;;;6.98;40.43;95004.91;5136249;27;1042;-46
2022/03/05 08:58:57;;;;;;;;;;;;;;;6.95;39.53;94999.88;5136222;27;1975;-47
2022/03/05 09:01:23;;;;;;;;;;;;;;;7.19;39.89;94993.22;5135944;27;1054;-47
2022/03/05 09:03:49;;;;;;;;;;;;;;;7.31;40.22;95004.53;5136079;27;1078;-47
2022/03/05 09:06:15;;;;;;;;;;;;;;;7.28;39.21;94996.84;5135785;27;1044;-47
2022/03/05 09:08:41;;;;;;;;;;;;;;;7.26;39.60;94998.81;5135702;27;1103;-47
2022/03/05 09:11:08;;;;;;;;;;;;;;;7.10;39.45;94986.97;5134737;27;1084;-46
2022/03/05 09:13:34;;;;;;;;;;;;;;;7.38;39.32;94989.66;5134696;27;1032;-47
2022/03/05 09:16:00;;;;;;;;;;;;;;;7.47;40.11;94986.13;5135855;27;1065;-47
2022/03/05 09:18:27;;;;;;;;;;;;;;;7.67;39.11;94986.06;5135729;27;1913;-47
2022/03/05 09:20:53;;;;;;;;;;;;;;;8.06;37.84;94992.00;5135476;27;947;-46
2022/03/05 09:23:19;;;;;;;;;;;;;;;8.71;37.51;94986.53;5135518;27;1078;-47
2022/03/05 09:25:45;;;;;;;;;;;;;;;9.52;36.25;94980.09;5135171;27;1039;-47
2022/03/05 09:28:10;;;;;;;;;;;;;;;10.13;36.26;94977.31;5135447;27;1070;-48
2022/03/05 09:30:37;;;;;;;;;;;;;;;10.65;34.99;94982.47;5135562;27;976;-47
2022/03/05 09:33:03;;;;;;;;;;;;;;;10.57;35.45;94982.47;5135362;27;964;-47
2022/03/05 09:35:29;;;;;;;;;;;;;;;10.26;36.45;94984.84;5135262;27;1039;-47
2022/03/05 09:37:55;;;;;;;;;;;;;;;11.26;34.70;94984.78;5135126;27;1988;-47
2022/03/05 09:40:21;;;;;;;;;;;;;;;11.69;33.48;94988.88;5134994;27;1054;-47
2022/03/05 09:42:47;;;;;;;;;;;;;;;11.21;34.18;94981.78;5135295;27;973;-46
2022/03/05 09:45:13;;;;;;;;;;;;;;;10.29;34.12;94992.56;5135223;27;1032;-47
2022/03/05 09:47:40;;;;;;;;;;;;;;;9.75;37.12;94987.50;5135235;27;1031;-48
2022/03/05 09:50:07;;;;;;;;;;;;;;;9.07;36.50;94985.59;5135615;27;1007;-47
2022/03/05 09:52:33;;;;;;;;;;;;;;;8.65;39.01;94987.13;5116347;27;1243;-47
2022/03/05 09:54:59;;;;;;;;;;;;;;;8.19;39.81;94983.66;5114251;28;1076;-48
2022/03/05 09:57:25;;;;;;;;;;;;;;;8.01;40.92;94986.31;5114468;28;1992;-47
2022/03/05 09:59:51;;;;;;;;;;;;;;;7.76;41.22;94974.53;5114514;28;1149;-48
2022/03/05 10:02:18;;;;;;;;;;;;;;;7.52;40.81;94980.38;5114040;28;1060;-46
2022/03/05 10:04:45;;;;;;;;;;;;;;;7.57;41.46;94980.75;5114236;28;1080;-47
2022/03/05 10:07:15;;;;;;;;;;;;;;;7.68;40.77;94975.25;5114306;28;999;-47
2022/03/05 10:13:15;;;;;;;;;;;;;;;7.73;41.64;94969.50;3884112;28;2024;-46
2022/03/05 10:15:41;;;;;;;;;;;;;;;7.73;42.09;94974.81;5113943;28;1040;-47
2022/03/05 10:18:07;;;;;;;;;;;;;;;7.61;42.39;94971.53;5113982;28;1910;-47
2022/03/05 10:20:33;;;;;;;;;;;;;;;7.69;42.27;94974.28;5114198;28;1055;-46
2022/03/05 10:23:01;;;;;;;;;;;;;;;7.87;41.87;94971.66;5113932;28;1028;-47
2022/03/05 10:25:31;;;;;;;;;;;;;;;7.99;41.56;94969.66;5113996;28;1103;-47
2022/03/05 10:28:01;;;;;;;;;;;;;;;8.02;41.00;94969.31;5113633;28;1044;-47
2022/03/05 10:30:31;;;;;;;;;;;;;;;8.09;39.62;94962.41;5113948;28;1043;-48
2022/03/05 10:32:57;;;;;;;;;;;;;;;8.02;39.41;94967.53;5113878;28;972;-47
2022/03/05 10:35:23;;;;;;;;;;;;;;;8.03;41.32;94965.69;5114182;28;1041;-47
2022/03/05 10:37:52;;;;;;;;;;;;;;;8.04;41.88;94955.88;5113445;28;1991;-47
2022/03/05 10:40:28;;;;;;;;;;;;;;;7.79;42.01;94950.28;5113749;28;1020;-47
2022/03/05 10:42:57;;;;;;;;;;;;;;;7.74;41.99;94949.88;5113294;28;1071;-46
2022/03/05 10:45:23;;;;;;;;;;;;;;;7.90;42.10;94955.38;5113934;28;1059;-47
2022/03/05 10:47:49;;;;;;;;;;;;;;;7.99;41.91;94948.34;5113448;28;1008;-47
2022/03/05 10:50:15;;;;;;;;;;;;;;;8.12;41.05;94945.28;5113808;28;961;-47
2022/03/05 10:52:49;;;;;;;;;;;;;;;8.37;40.67;94947.22;5133364;28;1188;-47
2022/03/05 10:55:24;;;;;;;;;;;;;;;8.41;40.87;94937.09;5133291;28;1491;-47
2022/03/05 10:58:01;;;;;;;;;;;;;;;8.30;40.75;94940.81;5133811;27;1925;-46
2022/03/05 11:00:28;;;;;;;;;;;;;;;8.05;41.92;94936.25;5134334;27;967;-47
2022/03/05 11:02:54;;;;;;;;;;;;;;;8.16;41.53;94925.38;5134153;27;1050;-48
2022/03/05 11:05:20;;;;;;;;;;;;;;;8.33;41.43;94929.88;5134074;27;1012;-47
2022/03/05 11:07:52;;;;;;;;;;;;;;;8.26;41.38;94923.47;5133806;27;1044;-47
2022/03/05 11:10:18;;;;;;;;;;;;;;;8.35;41.52;94911.91;5134042;27;964;-47
2022/03/05 11:12:51;;;;;;;;;;;;;;;8.55;41.43;94907.25;5133807;28;1107;-47
2022/03/05 11:15:18;;;;;;;;;;;;;;;8.56;41.92;94900.94;5133904;27;1000;-47
2022/03/05 11:17:45;;;;;;;;;;;;;;;8.47;42.05;94909.88;5133665;27;1977;-48
2022/03/05 11:20:11;;;;;;;;;;;;;;;8.54;41.62;94904.75;5134021;27;1035;-48
2022/03/05 11:22:37;;;;;;;;;;;;;;;8.42;40.62;94911.31;5133587;27;1038;-47
2022/03/05 11:25:04;;;;;;;;;;;;;;;8.08;41.19;94907.50;5117585;28;1291;-48
2022/03/05 11:27:30;;;;;;;;;;;;;;;7.96;41.32;94900.72;5113043;28;1322;-48
2022/03/05 11:29:58;;;;;;;;;;;;;;;8.01;40.81;94883.28;5112962;28;1107;-48
2022/03/05 11:32:28;;;;;;;;;;;;;;;8.14;42.71;94887.41;5113627;28;1026;-48
2022/03/05 11:34:55;;;;;;;;;;;;;;;8.06;41.87;94884.66;5115244;28;973;-47
2022/03/05 11:37:34;;;;;;;;;;;;;;;8.07;42.92;94887.19;5117288;27;1906;-48
2022/03/05 11:40:01;;;;;;;;;;;;;;;8.10;42.79;94876.22;5117311;28;1248;-48
2022/03/05 11:42:28;;;;;;;;;;;;;;;7.98;42.00;94883.59;5116921;28;1024;-48
2022/03/05 11:44:54;;;;;;;;;;;;;;;7.70;42.80;94882.84;5117007;28;1059;-48
2022/03/05 11:47:28;;;;;;;;;;;;;;;7.60;43.64;94872.22;5117042;28;1094;-47
2022/03/05 11:49:59;;;;;;;;;;;;;;;7.69;43.46;94864.34;5116903;28;933;-48
2022/03/05 11:52:37;;;;;;;;;;;;;;;7.52;43.40;94863.34;5134683;27;1265;-48
2022/03/05 11:55:13;;;;;;;;;;;;;;;7.39;43.94;94861.03;5137454;27;977;-48
2022/03/05 11:57:43;;;;;;;;;;;;;;;7.41;44.26;94864.38;5137166;27;1905;-48
2022/03/05 12:00:10;;;;;;;;;;;;;;;7.31;43.84;94869.75;5137483;27;1370;-48
2022/03/05 12:02:38;;;;;;;;;;;;;;;7.16;44.65;94861.41;5137284;27;1091;-48
2022/03/05 12:05:04;;;;;;;;;;;;;;;7.23;45.54;94861.69;5137089;27;1627;-49
2022/03/05 12:07:40;;;;;;;;;;;;;;;7.34;45.65;94863.28;5137510;27;1048;-48
2022/03/05 12:10:13;;;;;;;;;;;;;;;7.46;46.30;94856.78;5136993;27;1012;-48
2022/03/05 12:12:51;;;;;;;;;;;;;;;7.42;45.55;94853.59;5136636;27;1087;-48
2022/03/05 12:15:17;;;;;;;;;;;;;;;7.37;46.94;94847.88;5136930;27;1103;-48
2022/03/05 12:17:47;;;;;;;;;;;;;;;7.40;45.78;94850.25;5137225;27;1980;-48
2022/03/05 12:20:16;;;;;;;;;;;;;;;7.17;46.09;94851.59;5137352;27;1214;-48
2022/03/05 12:22:57;;;;;;;;;;;;;;;7.10;46.90;94838.06;5136884;27;1035;-48
2022/03/05 12:25:24;;;;;;;;;;;;;;;7.18;47.36;94842.66;5136747;27;929;-48
2022/03/05 12:27:51;;;;;;;;;;;;;;;7.39;46.30;94842.41;5137005;27;1032;-48
2022/03/05 12:30:18;;;;;;;;;;;;;;;7.27;47.13;94836.47;5136706;27;1035;-48
2022/03/05 12:32:47;;;;;;;;;;;;;;;7.29;48.41;94836.31;5136624;27;950;-48
2022/03/05 12:35:14;;;;;;;;;;;;;;;7.42;46.85;94834.13;5136603;27;913;-48
2022/03/05 12:37:43;;;;;;;;;;;;;;;7.57;47.27;94832.63;5136557;27;1990;-48
2022/03/05 12:40:09;;;;;;;;;;;;;;;7.59;47.21;94827.16;5136348;27;1042;-48
2022/03/05 12:42:37;;;;;;;;;;;;;;;7.50;48.13;94826.22;5136306;27;1079;-48
2022/03/05 12:45:03;;;;;;;;;;;;;;;7.52;47.71;94818.09;5135838;27;1028;-48
2022/03/05 12:47:33;;;;;;;;;;;;;;;7.70;48.03;94826.09;5135398;27;1545;-48
2022/03/05 12:50:18;;;;;;;;;;;;;;;7.60;47.29;94824.31;5136225;27;1028;-48
2022/03/05 12:52:58;;;;;;;;;;;;;;;7.46;47.54;94829.34;5115798;27;1183;-48
2022/03/05 12:55:36;;;;;;;;;;;;;;;7.42;47.47;94815.50;5115542;28;1583;-48
2022/03/05 12:58:10;;;;;;;;;;;;;;;7.41;47.63;94821.81;5114654;28;2016;-48
2022/03/05 13:00:36;;;;;;;;;;;;;;;7.41;48.85;94822.63;5115657;28;976;-48
2022/03/05 13:03:03;;;;;;;;;;;;;;;7.55;48.49;94823.97;5115350;28;1111;-48
2022/03/05 13:05:29;;;;;;;;;;;;;;;7.48;48.26;94820.22;5115588;28;1007;-48
2022/03/05 13:07:55;;;;;;;;;;;;;;;7.21;49.42;94832.56;5115682;28;1079;-48
2022/03/05 13:10:21;;;;;;;;;;;;;;;6.98;50.40;94837.44;5115346;28;964;-48
2022/03/05 13:12:47;;;;;;;;;;;;;;;6.88;51.09;94820.69;5122648;27;1363;-47